Terminal Aerodrome Forecast
Issued by NWS Greer, SC

Home | Current Version | Previous Version | Text Only | Print | Product List | Glossary On
Versions: 1 2 3 4 5 6 7 8 9 10 11 12 13 14 15 16 17 18 19 20 21 22 23 24 25 26 27 28 29 30 31
000
FTUS42 KGSP 292336
TAFCLT
TAF
KCLT 292336Z 3000/3024 13009KT P6SM VCSH FEW035
     FM300200 12007KT P6SM FEW040
     FM300500 16006KT P6SM FEW040
     FM300900 19003KT 6SM BR FEW030
     FM301300 20004KT P6SM FEW040
     FM301700 19008KT P6SM SCT250=

USA.gov is the U.S. government's official web portal to all federal, state and local government web resources and services.